createdAt,value
2024-01-06T00:07:55.274Z,3.63
2024-01-06T00:17:59.576Z,5.18
2024-01-06T00:28:02.461Z,4.20
2024-01-06T00:38:06.624Z,4.40
2024-01-06T00:48:09.680Z,4.53
2024-01-06T00:58:14.203Z,4.05
2024-01-06T01:08:17.115Z,2.92
2024-01-06T01:18:21.522Z,4.85
2024-01-06T01:28:24.506Z,3.17
2024-01-06T01:38:28.657Z,1.75
2024-01-06T01:48:32.218Z,3.30
2024-01-06T01:58:36.630Z,3.70
2024-01-06T02:08:39.549Z,4.65
2024-01-06T02:18:43.946Z,3.50
2024-01-06T02:28:49.259Z,5.28
2024-01-06T02:38:52.109Z,4.57
2024-01-06T02:48:56.430Z,3.92
2024-01-06T02:58:59.217Z,3.97
2024-01-06T03:09:03.418Z,5.50
2024-01-06T03:19:06.310Z,3.75
2024-01-06T03:29:10.580Z,4.55
2024-01-06T03:39:14.454Z,6.25
2024-01-06T03:49:19.740Z,3.10
2024-01-06T03:59:22.812Z,4.43
2024-01-06T04:09:26.961Z,7.07
2024-01-06T04:19:30.116Z,4.18
2024-01-06T04:29:34.342Z,3.08
2024-01-06T04:39:38.005Z,4.32
2024-01-06T04:49:42.527Z,4.30
2024-01-06T04:59:45.761Z,5.88
2024-01-06T05:09:49.978Z,4.78
2024-01-06T05:19:52.950Z,4.30
2024-01-06T05:29:57.209Z,2.88
2024-01-06T05:40:02.469Z,4.03
2024-01-06T05:50:10.387Z,5.93
2024-01-06T06:00:14.850Z,4.25
2024-01-06T06:10:19.917Z,6.32
2024-01-06T06:20:22.762Z,6.18
2024-01-06T06:30:27.097Z,2.95
2024-01-06T06:40:30.003Z,3.65
2024-01-06T06:50:34.254Z,4.03
2024-01-06T07:00:37.342Z,3.20
2024-01-06T07:10:41.564Z,4.65
2024-01-06T07:20:44.403Z,4.95
2024-01-06T07:30:48.621Z,4.60
2024-01-06T07:40:51.428Z,4.10
2024-01-06T07:50:55.709Z,4.32
2024-01-06T08:00:58.626Z,5.50
2024-01-06T08:11:03.093Z,3.95
2024-01-06T08:21:06.387Z,5.35
2024-01-06T08:31:10.622Z,5.95
2024-01-06T08:41:13.468Z,5.47
2024-01-06T08:51:17.869Z,4.40
2024-01-06T09:01:21.030Z,5.50
2024-01-06T09:11:25.257Z,4.90
2024-01-06T09:21:28.231Z,15.65
2024-01-06T09:31:33.112Z,6.47
2024-01-06T09:41:36.466Z,7.15
2024-01-06T09:51:41.653Z,4.57
2024-01-06T10:01:44.522Z,6.50
2024-01-06T10:11:48.683Z,10.98
2024-01-06T10:21:51.526Z,11.05
2024-01-06T10:31:56.519Z,9.77
2024-01-06T10:41:59.444Z,13.27
2024-01-06T10:52:03.821Z,17.90
2024-01-06T11:02:08.084Z,24.42
2024-01-06T11:12:12.338Z,26.77
2024-01-06T11:22:29.516Z,21.90
2024-01-06T11:32:37.267Z,21.20
2024-01-06T11:42:40.296Z,19.25
2024-01-06T11:52:44.550Z,16.77
2024-01-06T12:02:47.419Z,15.40
2024-01-06T12:13:00.356Z,17.45
2024-01-06T12:23:06.934Z,18.17
2024-01-06T12:33:12.109Z,15.82
2024-01-06T12:43:15.364Z,15.27
2024-01-06T12:53:19.484Z,12.05
2024-01-06T13:03:23.931Z,10.98
2024-01-06T13:13:28.475Z,11.23
2024-01-06T13:23:31.347Z,10.60
2024-01-06T13:33:35.712Z,11.20
2024-01-06T13:43:38.546Z,13.63
2024-01-06T13:53:42.681Z,7.97
2024-01-06T14:03:45.571Z,10.13
2024-01-06T14:13:52.730Z,7.80
2024-01-06T14:23:55.513Z,9.38
2024-01-06T14:34:01.072Z,13.82
2024-01-06T14:44:04.386Z,13.63
2024-01-06T14:54:12.477Z,18.40
2024-01-06T15:04:20.333Z,13.82
2024-01-06T15:14:25.689Z,25.02
2024-01-06T15:24:28.492Z,15.27
2024-01-06T15:34:32.944Z,13.07
2024-01-06T15:44:35.754Z,15.48
2024-01-06T15:54:40.074Z,13.63
2024-01-06T16:04:43.498Z,9.73
2024-01-06T16:14:47.952Z,12.60
2024-01-06T16:24:50.729Z,14.63
2024-01-06T16:34:55.182Z,14.25
2024-01-06T16:44:58.080Z,13.70
2024-01-06T16:55:02.570Z,9.50
2024-01-06T17:05:08.130Z,7.70
2024-01-06T17:15:13.050Z,10.93
2024-01-06T17:25:16.698Z,14.00
2024-01-06T17:45:23.599Z,13.73
2024-01-06T17:55:29.226Z,8.98
2024-01-06T18:05:32.598Z,8.32
2024-01-06T18:15:36.900Z,18.17
2024-01-06T18:25:39.991Z,14.10
2024-01-06T18:35:44.315Z,15.15
2024-01-06T18:45:47.287Z,14.68
2024-01-06T18:55:51.851Z,17.92
2024-01-06T19:05:54.719Z,17.23
2024-01-06T19:15:59.040Z,21.23
2024-01-06T19:26:03.792Z,19.42
2024-01-06T19:36:08.885Z,21.00
2024-01-06T19:46:13.176Z,17.67
2024-01-06T19:56:17.424Z,16.05
2024-01-06T20:06:20.469Z,22.17
2024-01-06T20:16:24.739Z,14.18
2024-01-06T20:26:29.847Z,10.25
2024-01-06T20:36:34.321Z,9.25
2024-01-06T20:46:37.631Z,12.13
2024-01-06T20:56:42.437Z,8.98
2024-01-06T21:06:45.305Z,8.73
2024-01-06T21:16:51.297Z,10.43
2024-01-06T21:26:54.579Z,10.48
2024-01-06T21:36:59.708Z,13.73
2024-01-06T21:47:04.212Z,12.38
2024-01-06T21:57:09.410Z,10.55
2024-01-06T22:07:13.238Z,15.07
2024-01-06T22:17:17.587Z,13.50
2024-01-06T22:27:21.012Z,13.20
2024-01-06T22:37:25.310Z,12.98
2024-01-06T22:47:28.153Z,15.77
2024-01-06T22:57:32.396Z,14.30
2024-01-06T23:07:35.284Z,10.80
2024-01-06T23:17:39.663Z,10.73
2024-01-06T23:27:42.521Z,15.40
2024-01-06T23:37:51.369Z,14.93
2024-01-06T23:47:54.259Z,12.82
2024-01-06T23:57:58.655Z,15.02
